createdAt,value
2022-11-02T00:00:54.905Z,98111.80
2022-11-02T00:03:21.857Z,98112.40
2022-11-02T00:05:48.740Z,98109.40
2022-11-02T00:08:15.531Z,98099.20
2022-11-02T00:10:42.581Z,98105.20
2022-11-02T00:13:09.395Z,98109.40
2022-11-02T00:15:37.357Z,98109.40
2022-11-02T00:18:07.917Z,98104.20
2022-11-02T00:20:38.533Z,98103.40
2022-11-02T00:23:07.934Z,98104.80
2022-11-02T00:25:37.677Z,98106.40
2022-11-02T00:28:04.811Z,98109.40
2022-11-02T00:30:31.843Z,98105.60
2022-11-02T00:32:58.700Z,98102.20
2022-11-02T00:35:25.547Z,98103.40
2022-11-02T00:37:52.320Z,98099.40
2022-11-02T00:40:19.291Z,98100.00
2022-11-02T00:42:46.113Z,98102.20
2022-11-02T00:45:13.040Z,98104.20
2022-11-02T00:47:40.267Z,98103.80
2022-11-02T00:50:08.443Z,98097.60
2022-11-02T00:52:40.530Z,98102.60
2022-11-02T00:55:09.205Z,98109.60
2022-11-02T00:57:38.843Z,98115.40
2022-11-02T01:00:12.931Z,98118.20
2022-11-02T01:02:39.985Z,98123.20
2022-11-02T01:05:09.562Z,98126.40
2022-11-02T01:07:37.847Z,98130.20
2022-11-02T01:10:07.588Z,98128.00
2022-11-02T01:12:38.508Z,98128.20
2022-11-02T01:15:08.586Z,98130.40
2022-11-02T01:17:35.625Z,98131.00
2022-11-02T01:20:05.988Z,98127.80
2022-11-02T01:22:32.920Z,98126.00
2022-11-02T01:24:59.695Z,98124.20
2022-11-02T01:27:26.514Z,98120.60
2022-11-02T01:29:53.537Z,98122.80
2022-11-02T01:32:20.291Z,98126.00
2022-11-02T01:34:47.087Z,98127.80
2022-11-02T01:37:15.503Z,98126.60
2022-11-02T01:39:42.353Z,98127.00
2022-11-02T01:42:20.348Z,98132.00
2022-11-02T01:44:47.503Z,98131.80
2022-11-02T01:47:47.651Z,98134.80
2022-11-02T01:50:27.753Z,98136.80
2022-11-02T01:52:54.784Z,98141.80
2022-11-02T01:55:29.430Z,98142.00
2022-11-02T01:58:03.088Z,98137.20
2022-11-02T02:00:30.627Z,98140.80
2022-11-02T02:03:18.475Z,98139.20
2022-11-02T02:05:56.354Z,98140.80
2022-11-02T02:08:26.767Z,98140.80
2022-11-02T02:10:58.620Z,98143.00
2022-11-02T02:13:28.343Z,98143.60
2022-11-02T02:16:15.989Z,98145.20
2022-11-02T02:18:57.749Z,98143.00
2022-11-02T02:22:04.855Z,98142.00
2022-11-02T02:24:51.525Z,98145.20
2022-11-02T02:27:52.900Z,98148.20
2022-11-02T02:30:20.177Z,98142.00
2022-11-02T02:33:03.994Z,98141.20
2022-11-02T02:35:49.164Z,98147.20
2022-11-02T02:38:36.191Z,98150.60
2022-11-02T02:41:15.731Z,98152.80
2022-11-02T02:43:52.592Z,98153.60
2022-11-02T02:46:42.638Z,98156.60
2022-11-02T02:49:15.821Z,98157.00
2022-11-02T02:51:46.550Z,98152.60
2022-11-02T02:54:26.270Z,98156.20
2022-11-02T02:56:58.888Z,98153.40
2022-11-02T02:59:36.613Z,98154.00
2022-11-02T03:02:09.493Z,98154.20
2022-11-02T03:04:36.968Z,98155.80
2022-11-02T03:07:04.195Z,98156.00
2022-11-02T03:09:44.555Z,98152.20
2022-11-02T03:12:38.990Z,98154.40
2022-11-02T03:15:18.069Z,98149.00
2022-11-02T03:17:54.067Z,98148.80
2022-11-02T03:20:30.847Z,98149.00
2022-11-02T03:23:03.541Z,98151.40
2022-11-02T03:25:55.553Z,98157.40
2022-11-02T03:28:50.348Z,98157.40
2022-11-02T03:31:39.821Z,98159.00
2022-11-02T03:34:41.530Z,98158.20
2022-11-02T03:37:22.363Z,98154.40
2022-11-02T03:40:03.620Z,98154.80
2022-11-02T03:42:35.293Z,98152.60
2022-11-02T03:45:12.191Z,98151.80
2022-11-02T03:47:42.279Z,98155.00
2022-11-02T03:50:14.913Z,98155.20
2022-11-02T03:52:46.115Z,98157.80
2022-11-02T03:55:20.627Z,98158.00
2022-11-02T03:57:50.894Z,98161.60
2022-11-02T04:00:26.300Z,98163.00
2022-11-02T04:03:04.200Z,98165.00
2022-11-02T04:05:36.549Z,98163.00
2022-11-02T04:08:29.419Z,98158.60
2022-11-02T04:11:18.585Z,98160.60
2022-11-02T04:14:04.883Z,98165.00
2022-11-02T04:16:35.625Z,98165.60
2022-11-02T04:19:23.792Z,98168.80
2022-11-02T04:22:10.146Z,98177.60
2022-11-02T04:24:57.121Z,98171.20
2022-11-02T04:27:24.321Z,98173.00
2022-11-02T04:29:51.376Z,98175.00
2022-11-02T04:32:37.217Z,98179.80
2022-11-02T04:35:06.211Z,98183.80
2022-11-02T04:38:01.461Z,98184.40
2022-11-02T04:40:30.567Z,98189.60
2022-11-02T04:42:57.812Z,98188.60
2022-11-02T04:45:24.748Z,98189.60
2022-11-02T04:47:52.004Z,98189.60
2022-11-02T04:50:19.569Z,98186.80
2022-11-02T04:52:59.260Z,98188.40
2022-11-02T04:55:27.062Z,98185.60
2022-11-02T04:57:54.262Z,98188.00
2022-11-02T05:00:23.014Z,98188.20
2022-11-02T05:02:51.468Z,98191.60
2022-11-02T05:05:20.216Z,98191.80
2022-11-02T05:07:48.550Z,98191.80
2022-11-02T05:10:15.690Z,98195.00
2022-11-02T05:12:43.261Z,98196.60
2022-11-02T05:15:11.432Z,98197.00
2022-11-02T05:17:38.499Z,98204.00
2022-11-02T05:20:08.626Z,98202.20
2022-11-02T05:22:35.537Z,98203.20
2022-11-02T05:25:02.614Z,98207.80
2022-11-02T05:27:30.005Z,98210.00
2022-11-02T05:29:56.979Z,98212.20
2022-11-02T05:32:24.001Z,98221.20
2022-11-02T05:34:50.925Z,98221.60
2022-11-02T05:37:17.828Z,98228.40
2022-11-02T05:39:47.714Z,98230.80
2022-11-02T05:42:16.702Z,98232.40
2022-11-02T05:44:43.679Z,98234.60
2022-11-02T05:47:10.540Z,98239.40
2022-11-02T05:49:37.362Z,98241.00
2022-11-02T05:52:04.432Z,98246.40
2022-11-02T05:54:31.253Z,98247.00
2022-11-02T05:56:58.001Z,98247.00
2022-11-02T05:59:24.733Z,98248.00
2022-11-02T06:01:51.551Z,98248.20
2022-11-02T06:04:18.669Z,98250.00
2022-11-02T06:06:45.976Z,98253.40
2022-11-02T06:09:12.716Z,98253.20
2022-11-02T06:11:39.557Z,98259.40
2022-11-02T06:14:06.398Z,98263.80
2022-11-02T06:16:33.190Z,98266.20
2022-11-02T06:18:59.997Z,98266.80
2022-11-02T06:21:27.030Z,98275.20
2022-11-02T06:23:53.965Z,98272.40
2022-11-02T06:26:20.814Z,98280.00
2022-11-02T06:28:47.758Z,98281.60
2022-11-02T06:31:17.519Z,98282.00
2022-11-02T06:33:45.663Z,98287.80
2022-11-02T06:36:12.389Z,98291.80
2022-11-02T06:38:39.160Z,98297.20
2022-11-02T06:41:06.971Z,98294.20
2022-11-02T06:43:38.359Z,98292.60
2022-11-02T06:46:06.100Z,98295.40
2022-11-02T06:48:35.515Z,98296.20
2022-11-02T06:51:06.589Z,98301.00
2022-11-02T06:53:34.020Z,98301.40
2022-11-02T06:56:01.387Z,98306.00
2022-11-02T06:58:29.108Z,98304.40
2022-11-02T07:01:07.205Z,98306.80
2022-11-02T07:03:35.299Z,98311.80
2022-11-02T07:06:02.748Z,98306.40
2022-11-02T07:08:29.691Z,98306.60
2022-11-02T07:11:00.792Z,98303.80
2022-11-02T07:13:27.681Z,98303.60
2022-11-02T07:15:55.606Z,98306.00
2022-11-02T07:18:23.822Z,98300.00
2022-11-02T07:20:50.869Z,98302.20
2022-11-02T07:23:17.915Z,98305.60
2022-11-02T07:25:44.718Z,98308.20
2022-11-02T07:28:11.541Z,98310.20
2022-11-02T07:30:38.352Z,98307.60
2022-11-02T07:33:05.642Z,98307.60
2022-11-02T07:35:34.396Z,98305.20
2022-11-02T07:38:05.057Z,98305.40
2022-11-02T07:40:35.224Z,98305.20
2022-11-02T07:43:03.349Z,98309.20
2022-11-02T07:45:36.918Z,98311.00
2022-11-02T07:48:03.790Z,98318.60
2022-11-02T07:50:30.544Z,98321.60
2022-11-02T07:52:59.348Z,98320.00
2022-11-02T07:55:29.531Z,98324.80
2022-11-02T07:58:10.413Z,98320.00
2022-11-02T08:00:41.203Z,98313.40
2022-11-02T08:03:11.430Z,98311.80
2022-11-02T08:05:42.990Z,98308.00
2022-11-02T08:08:19.752Z,98307.20
2022-11-02T08:10:49.986Z,98306.60
2022-11-02T08:13:21.350Z,98310.00
2022-11-02T08:15:53.201Z,98309.80
2022-11-02T08:18:23.631Z,98318.00
2022-11-02T08:20:51.748Z,98318.00
2022-11-02T08:23:21.029Z,98321.40
2022-11-02T08:25:50.422Z,98325.00
2022-11-02T08:28:36.780Z,98325.80
2022-11-02T08:31:04.006Z,98328.00
2022-11-02T08:33:30.876Z,98327.80
2022-11-02T08:36:03.663Z,98329.20
2022-11-02T08:38:31.931Z,98334.00
2022-11-02T08:40:58.916Z,98328.40
2022-11-02T08:43:25.993Z,98331.60
2022-11-02T08:46:13.690Z,98328.60
2022-11-02T08:48:40.450Z,98327.40
2022-11-02T08:51:08.978Z,98329.20
2022-11-02T08:53:35.770Z,98331.80
2022-11-02T08:56:02.636Z,98326.80
2022-11-02T08:58:29.736Z,98326.20
2022-11-02T09:00:56.860Z,98331.00
2022-11-02T09:03:27.204Z,98329.80
2022-11-02T09:06:02.578Z,98330.80
2022-11-02T09:08:30.789Z,98335.40
2022-11-02T09:11:02.326Z,98331.80
2022-11-02T09:13:29.586Z,98334.60
2022-11-02T09:15:59.155Z,98333.60
2022-11-02T09:18:26.972Z,98337.00
2022-11-02T09:20:53.920Z,98343.00
2022-11-02T09:23:22.389Z,98343.60
2022-11-02T09:25:50.159Z,98345.80
2022-11-02T09:28:17.033Z,98352.80
2022-11-02T09:30:44.158Z,98352.60
2022-11-02T09:33:11.691Z,98359.20
2022-11-02T09:35:48.005Z,98356.00
2022-11-02T09:38:18.512Z,98353.60
2022-11-02T09:41:05.162Z,98355.40
2022-11-02T09:44:05.366Z,98353.80
2022-11-02T09:46:40.334Z,98355.60
2022-11-02T09:49:21.448Z,98352.80
2022-11-02T09:52:00.374Z,98356.40
2022-11-02T09:54:45.568Z,98349.60
2022-11-02T09:57:20.263Z,98353.80
2022-11-02T09:59:47.175Z,98351.40
2022-11-02T10:02:59.137Z,98352.00
2022-11-02T10:05:41.662Z,98359.20
2022-11-02T10:08:58.121Z,98361.60
2022-11-02T10:11:51.581Z,98365.60
2022-11-02T10:14:27.964Z,98368.80
2022-11-02T10:17:23.330Z,98367.00
2022-11-02T10:19:59.706Z,98371.20
2022-11-02T10:22:36.518Z,98371.00
2022-11-02T10:25:08.528Z,98370.20
2022-11-02T10:27:39.794Z,98373.60
2022-11-02T10:30:13.846Z,98372.80
2022-11-02T10:35:40.673Z,98376.60
2022-11-02T10:38:52.496Z,98372.20
2022-11-02T10:41:40.300Z,98366.60
2022-11-02T10:44:35.440Z,98369.20
2022-11-02T10:47:27.571Z,98367.80
2022-11-02T10:50:31.808Z,98368.80
2022-11-02T10:53:27.246Z,98370.40
2022-11-02T10:56:33.110Z,98370.00
2022-11-02T10:59:02.924Z,98368.20
2022-11-02T11:01:32.359Z,98364.20
2022-11-02T11:04:19.783Z,98363.40
2022-11-02T11:06:47.151Z,98363.00
2022-11-02T11:09:22.839Z,98363.60
2022-11-02T11:12:06.948Z,98361.80
2022-11-02T11:20:35.565Z,98352.40
2022-11-02T11:23:26.484Z,98354.20
2022-11-02T11:26:26.481Z,98350.20
2022-11-02T11:28:56.596Z,98350.40
2022-11-02T11:31:25.202Z,98341.00
2022-11-02T11:34:00.290Z,98340.20
2022-11-02T11:36:36.259Z,98345.80
2022-11-02T11:39:26.487Z,98352.20
2022-11-02T11:41:53.633Z,98349.00
2022-11-02T11:44:22.621Z,98350.20
2022-11-02T11:46:58.068Z,98347.40
2022-11-02T11:49:55.427Z,98345.60
2022-11-02T11:52:32.588Z,98340.20
2022-11-02T11:55:31.807Z,98339.60
2022-11-02T11:58:18.809Z,98333.40
2022-11-02T12:00:46.018Z,98331.60
2022-11-02T12:03:16.443Z,98330.20
2022-11-02T12:06:23.995Z,98327.40
2022-11-02T12:09:05.697Z,98320.40
2022-11-02T12:11:51.015Z,98316.20
2022-11-02T12:14:51.282Z,98313.80
2022-11-02T12:17:36.130Z,98313.20
2022-11-02T12:20:50.717Z,98309.60
2022-11-02T12:24:15.820Z,98305.80
2022-11-02T12:27:15.829Z,98310.00
2022-11-02T12:30:23.431Z,98309.00
2022-11-02T12:33:14.758Z,98305.00
2022-11-02T12:36:16.505Z,98307.00
2022-11-02T12:39:04.070Z,98300.00
2022-11-02T12:41:36.718Z,98299.80
2022-11-02T12:44:35.210Z,98298.60
2022-11-02T12:47:23.236Z,98295.00
2022-11-02T12:50:18.888Z,98293.60
2022-11-02T12:53:52.063Z,98293.80
2022-11-02T12:56:48.315Z,98293.00
2022-11-02T12:59:27.819Z,98287.60
2022-11-02T13:02:11.373Z,98291.40
2022-11-02T13:04:52.960Z,98283.40
2022-11-02T13:07:37.109Z,98283.00
2022-11-02T13:10:33.155Z,98285.00
2022-11-02T13:13:04.785Z,98289.20
2022-11-02T13:15:37.276Z,98283.00
2022-11-02T13:18:13.322Z,98281.20
2022-11-02T13:20:55.003Z,98276.80
2022-11-02T13:23:34.428Z,98276.00
2022-11-02T13:26:11.028Z,98277.60
2022-11-02T13:28:53.481Z,98279.00
2022-11-02T13:31:47.052Z,98273.80
2022-11-02T13:34:31.166Z,98281.20
2022-11-02T13:36:58.964Z,98278.80
2022-11-02T13:39:51.804Z,98282.80
2022-11-02T13:42:48.721Z,98289.20
2022-11-02T13:45:36.647Z,98285.60
2022-11-02T13:48:48.646Z,98287.00
2022-11-02T13:51:26.648Z,98285.00
2022-11-02T13:54:04.797Z,98283.40
2022-11-02T13:56:37.710Z,98281.40
2022-11-02T13:59:09.497Z,98276.60
2022-11-02T14:01:41.448Z,98276.40
2022-11-02T14:04:13.144Z,98280.60
2022-11-02T14:06:50.300Z,98281.00
2022-11-02T14:09:56.570Z,98276.20
2022-11-02T14:12:23.883Z,98275.60
2022-11-02T14:15:12.779Z,98274.00
2022-11-02T14:17:55.277Z,98282.40
2022-11-02T14:20:47.020Z,98279.00
2022-11-02T14:23:18.711Z,98276.40
2022-11-02T14:25:45.556Z,98278.60
2022-11-02T14:28:23.628Z,98279.40
2022-11-02T14:31:05.719Z,98280.80
2022-11-02T14:34:14.698Z,98290.00
2022-11-02T14:36:57.000Z,98295.80
2022-11-02T14:40:27.589Z,98292.80
2022-11-02T14:43:22.186Z,98294.00
2022-11-02T14:46:22.509Z,98297.40
2022-11-02T14:48:57.610Z,98295.00
2022-11-02T14:51:37.584Z,98297.80
2022-11-02T14:54:08.478Z,98301.60
2022-11-02T14:57:01.506Z,98304.40
2022-11-02T14:59:45.463Z,98313.20
2022-11-02T15:02:42.966Z,98316.80
2022-11-02T15:05:35.333Z,98306.00
2022-11-02T15:08:22.755Z,98307.60
2022-11-02T15:10:50.010Z,98312.80
2022-11-02T15:13:19.817Z,98311.20
2022-11-02T15:16:12.503Z,98310.80
2022-11-02T15:18:40.744Z,98312.00
2022-11-02T15:21:10.939Z,98314.80
2022-11-02T15:26:20.968Z,98314.60
2022-11-02T15:28:50.747Z,98309.80
2022-11-02T15:31:26.042Z,98314.20
2022-11-02T15:34:01.549Z,98312.00
2022-11-02T15:36:36.100Z,98314.40
2022-11-02T15:39:10.498Z,98308.00
2022-11-02T15:42:01.954Z,98317.60
2022-11-02T15:45:26.808Z,98313.80
2022-11-02T15:48:43.200Z,98311.60
2022-11-02T15:51:45.847Z,98307.40
2022-11-02T15:54:32.896Z,98308.00
2022-11-02T15:57:05.945Z,98309.40
2022-11-02T15:59:52.933Z,98307.60
2022-11-02T16:02:25.678Z,98309.40
2022-11-02T16:05:00.629Z,98311.20
2022-11-02T16:07:38.405Z,98320.20
2022-11-02T16:10:25.733Z,98319.60
2022-11-02T16:13:13.521Z,98318.20
2022-11-02T16:15:42.586Z,98322.60
2022-11-02T16:18:44.022Z,98324.40
2022-11-02T16:21:16.964Z,98322.40
2022-11-02T16:23:51.193Z,98327.00
2022-11-02T16:26:23.377Z,98325.40
2022-11-02T16:28:59.976Z,98324.20
2022-11-02T16:31:32.129Z,98327.60
2022-11-02T16:34:10.912Z,98334.40
2022-11-02T16:36:38.679Z,98331.60
2022-11-02T16:39:17.100Z,98328.60
2022-11-02T16:41:52.382Z,98333.40
2022-11-02T16:44:27.918Z,98332.00
2022-11-02T16:47:06.848Z,98337.00
2022-11-02T16:49:55.387Z,98337.00
2022-11-02T16:52:29.195Z,98342.00
2022-11-02T16:54:56.341Z,98339.60
2022-11-02T16:57:34.031Z,98336.60
2022-11-02T17:00:08.100Z,98338.40
2022-11-02T17:02:42.133Z,98339.40
2022-11-02T17:05:22.929Z,98337.40
2022-11-02T17:08:09.571Z,98337.80
2022-11-02T17:10:39.609Z,98337.80
2022-11-02T17:13:21.620Z,98339.40
2022-11-02T17:15:51.605Z,98343.80
2022-11-02T17:18:21.276Z,98350.40
2022-11-02T17:21:10.127Z,98351.60
2022-11-02T17:23:37.693Z,98353.20
2022-11-02T17:26:26.247Z,98354.60
2022-11-02T17:29:17.459Z,98356.00
2022-11-02T17:31:44.523Z,98351.00
2022-11-02T17:34:20.093Z,98353.40
2022-11-02T17:36:49.528Z,98355.20
2022-11-02T17:39:21.176Z,98360.60
2022-11-02T17:42:19.074Z,98357.20
2022-11-02T17:44:46.325Z,98349.00
2022-11-02T17:47:18.525Z,98341.20
2022-11-02T17:49:45.445Z,98338.80
2022-11-02T17:52:16.557Z,98329.40
2022-11-02T17:54:43.450Z,98327.80
2022-11-02T17:57:14.846Z,98330.80
2022-11-02T17:59:41.922Z,98332.00
2022-11-02T18:02:14.713Z,98336.20
2022-11-02T18:07:13.813Z,98338.00
2022-11-02T18:09:40.768Z,98338.60
2022-11-02T18:12:13.441Z,98335.00
2022-11-02T18:14:40.614Z,98334.00
2022-11-02T18:17:08.567Z,98334.00
2022-11-02T18:19:35.397Z,98332.40
2022-11-02T18:22:02.342Z,98336.80
2022-11-02T18:24:29.129Z,98335.20
2022-11-02T18:26:56.029Z,98333.40
2022-11-02T18:29:23.589Z,98331.00
2022-11-02T18:31:50.734Z,98334.60
2022-11-02T18:34:17.589Z,98334.80
2022-11-02T18:36:44.387Z,98338.00
2022-11-02T18:39:11.684Z,98336.20
2022-11-02T18:41:40.562Z,98330.20
2022-11-02T18:44:14.654Z,98336.20
2022-11-02T18:46:42.728Z,98330.20
2022-11-02T18:49:09.689Z,98324.40
2022-11-02T18:51:36.638Z,98323.60
2022-11-02T18:54:06.274Z,98318.40
2022-11-02T18:56:33.857Z,98320.20
2022-11-02T18:59:01.260Z,98324.20
2022-11-02T19:01:28.390Z,98327.00
2022-11-02T19:03:58.791Z,98325.40
2022-11-02T19:06:49.228Z,98314.40
2022-11-02T19:09:19.462Z,98318.20
2022-11-02T19:12:04.518Z,98314.40
2022-11-02T19:14:38.224Z,98324.40
2022-11-02T19:17:07.237Z,98323.80
2022-11-02T19:19:34.369Z,98321.40
2022-11-02T19:22:02.537Z,98319.20
2022-11-02T19:24:29.686Z,98312.40
2022-11-02T19:26:56.522Z,98317.20
2022-11-02T19:29:23.473Z,98312.60
2022-11-02T19:31:50.558Z,98313.00
2022-11-02T19:34:17.366Z,98312.40
2022-11-02T19:36:44.535Z,98314.40
2022-11-02T19:39:11.602Z,98319.00
2022-11-02T19:41:38.984Z,98324.40
2022-11-02T19:44:06.783Z,98329.20
2022-11-02T19:46:34.751Z,98330.60
2022-11-02T19:49:01.593Z,98331.60
2022-11-02T19:51:31.016Z,98337.40
2022-11-02T19:54:01.256Z,98338.60
2022-11-02T19:56:31.707Z,98338.80
2022-11-02T19:58:59.241Z,98337.40
2022-11-02T20:01:30.097Z,98343.20
2022-11-02T20:03:58.586Z,98339.00
2022-11-02T20:06:32.024Z,98337.00
2022-11-02T20:09:04.597Z,98327.80
2022-11-02T20:11:32.871Z,98318.80
2022-11-02T20:14:02.483Z,98324.00
2022-11-02T20:16:30.442Z,98322.40
2022-11-02T20:18:57.692Z,98323.40
2022-11-02T20:21:33.387Z,98314.60
2022-11-02T20:24:02.726Z,98309.80
2022-11-02T20:26:34.795Z,98307.80
2022-11-02T20:29:04.741Z,98307.60
2022-11-02T20:31:38.296Z,98308.80
2022-11-02T20:34:08.522Z,98308.60
2022-11-02T20:36:36.103Z,98306.20
2022-11-02T20:39:05.623Z,98305.40
2022-11-02T20:41:32.725Z,98304.40
2022-11-02T20:43:59.826Z,98301.00
2022-11-02T20:46:40.074Z,98299.80
2022-11-02T20:49:20.742Z,98307.60
2022-11-02T20:51:56.397Z,98305.80
2022-11-02T20:54:23.847Z,98299.40
2022-11-02T20:56:50.871Z,98295.60
2022-11-02T20:59:18.018Z,98294.00
2022-11-02T21:01:45.879Z,98292.60
2022-11-02T21:04:19.888Z,98295.20
2022-11-02T21:06:51.870Z,98291.60
2022-11-02T21:09:19.533Z,98287.60
2022-11-02T21:12:05.628Z,98281.20
2022-11-02T21:14:32.522Z,98284.00
2022-11-02T21:16:59.524Z,98284.80
2022-11-02T21:19:26.459Z,98282.40
2022-11-02T21:21:59.062Z,98274.20
2022-11-02T21:24:28.656Z,98277.60
2022-11-02T21:26:55.893Z,98274.00
2022-11-02T21:29:22.861Z,98276.40
2022-11-02T21:31:50.090Z,98270.00
2022-11-02T21:34:16.932Z,98268.40
2022-11-02T21:36:43.876Z,98262.60
2022-11-02T21:39:10.710Z,98259.80
2022-11-02T21:41:39.116Z,98257.80
2022-11-02T21:44:07.924Z,98253.00
2022-11-02T21:46:35.908Z,98247.20
2022-11-02T21:49:03.054Z,98241.20
2022-11-02T21:51:30.050Z,98240.60
2022-11-02T21:53:57.053Z,98244.00
2022-11-02T21:56:27.803Z,98247.60
2022-11-02T21:58:56.178Z,98249.20
2022-11-02T22:01:45.517Z,98244.00
2022-11-02T22:04:17.237Z,98237.00
2022-11-02T22:06:44.178Z,98238.80
2022-11-02T22:09:13.388Z,98235.20
2022-11-02T22:11:41.361Z,98235.80
2022-11-02T22:14:08.084Z,98234.20
2022-11-02T22:16:39.627Z,98230.80
2022-11-02T22:19:11.153Z,98228.20
2022-11-02T22:21:44.650Z,98226.60
2022-11-02T22:24:12.761Z,98230.60
2022-11-02T22:26:40.215Z,98232.80
2022-11-02T22:29:08.596Z,98234.60
2022-11-02T22:31:39.221Z,98227.60
2022-11-02T22:34:12.124Z,98222.00
2022-11-02T22:36:42.551Z,98219.60
2022-11-02T22:39:12.930Z,98218.60
2022-11-02T22:41:45.813Z,98218.00
2022-11-02T22:44:14.228Z,98218.80
2022-11-02T22:46:47.679Z,98214.80
2022-11-02T22:49:17.135Z,98215.20
2022-11-02T22:51:48.182Z,98215.80
2022-11-02T22:54:20.366Z,98219.60
2022-11-02T22:56:48.770Z,98220.40
2022-11-02T22:59:16.251Z,98216.40
2022-11-02T23:01:43.733Z,98202.20
2022-11-02T23:04:12.518Z,98200.40
2022-11-02T23:06:39.790Z,98200.60
2022-11-02T23:09:07.252Z,98207.20
2022-11-02T23:11:37.078Z,98207.40
2022-11-02T23:14:08.554Z,98201.80
2022-11-02T23:16:39.309Z,98202.00
2022-11-02T23:19:27.524Z,98197.40
2022-11-02T23:22:22.978Z,98196.00
2022-11-02T23:25:17.345Z,98192.80
2022-11-02T23:28:15.625Z,98187.60
2022-11-02T23:31:02.968Z,98184.00
2022-11-02T23:33:33.729Z,98185.40
2022-11-02T23:36:11.112Z,98182.20
2022-11-02T23:39:07.098Z,98183.60
2022-11-02T23:41:38.666Z,98180.40
2022-11-02T23:44:12.491Z,98184.40
2022-11-02T23:46:45.902Z,98191.60
2022-11-02T23:49:15.320Z,98193.80
2022-11-02T23:52:00.683Z,98199.80
2022-11-02T23:54:46.588Z,98194.80
2022-11-02T23:57:13.483Z,98192.40
2022-11-02T23:59:40.740Z,98192.40
